METAR AND TAF INFORMATION
METAR FOR UARR
ADDS - METARS form results

(0415 UTC 26 August 2019)
Data provider http://aviationweather.gov/metar/data/
 
METAR text: UARR 260400Z 34009MPS CAVOK 15/10 Q1021 R04/CLRD70 TEMPO 33008G13MPS RMK QFE763/1017
Conditions at: UARR (URALSK , KZ) observed 0400 UTC 26 August 2019
Temperature: 15.0°C (59°F)
Dewpoint: 10.0°C (50°F) [RH = 72%]
Pressure (altimeter): 30.15 inches Hg (1021.0 mb)
Winds: from the NNW (340 degrees) at 20 MPH (17 knots; 8.7 m/s)
Visibility: 6 or more miles (10+ km)
Ceiling: ceiling and visibility are OK
Clouds: unknown
Weather: no significant weather observed at this time

METAR text: UARR 260330Z 34008MPS CAVOK 15/10 Q1021 R04/CLRD70 NOSIG RMK QFE762/1017
Conditions at: UARR (URALSK , KZ) observed 0330 UTC 26 August 2019
Temperature: 15.0°C (59°F)
Dewpoint: 10.0°C (50°F) [RH = 72%]
Pressure (altimeter): 30.15 inches Hg (1021.0 mb)
Winds: from the NNW (340 degrees) at 18 MPH (16 knots; 8.2 m/s)
Visibility: 6 or more miles (10+ km)
Ceiling: ceiling and visibility are OK
Clouds: unknown
Weather: no significant weather observed at this time

Forecast for: UARR (URALSK , KZ)
Text: TAF UARR 260200Z 2603/2612 34006MPS CAVOK
Forecast period: 0300 to 1200 UTC 26 August 2019
Forecast type: FROM: standard forecast or significant change
Winds: from the NNW (340 degrees) at 14 MPH (12 knots; 6.2 m/s)
Visibility: 6 or more miles 10+ km)
Ceiling: unknown
Clouds: missing
Weather: NSW  (no significant weather)
Text: TEMPO 2605/2609 36008G13MPS
Forecast period: 0500 to 0900 UTC 26 August 2019
Forecast type: TEMPORARY: The following changes expected for less than half the time period
Winds: from the N (360 degrees) at 18 MPH (16 knots; 8.2 m/s)
gusting to 29 MPH (25 knots; 12.9 m/s)
Visibility: missing
Ceiling: unknown
Clouds: missing
Weather: no significant weather forecast for this period

 AIRPORT MAP

 RUNWAY INFORMATION

 AIRPORT FREQUENCIES
Type TWR Name TWR Frequency 119.7 MHZ

 AIRPORT NEAR NAVIGATION AIDS
Type NDB Name Uralsk Frequency 442 KHZ
Type NDB Name Uralsk Frequency 442 KHZ
Type VOR-DME Name Uralsk Frequency 114200 KHZ



2018 Air Astana Virtual Airline